Time;durP1;ratioP1;P1;durP2;ratioP2;P2;SDS_P1;SDS_P2;PMS_P1;PMS_P2;Temp;Humidity;BMP_temperature;BMP_pressure;BME280_temperature;BME280_humidity;BME280_pressure;Samples;Min_cycle;Max_cycle;Signal;HPM_P1;HPM_P2
2022/12/06 00:03:54;;;;;;;49.70;28.17;;;4.20;99.90;;;;;;8451150;27;20183;-71
2022/12/06 00:07:55;;;;;;;47.03;26.03;;;4.10;99.90;;;;;;8444457;27;20273;-72
2022/12/06 00:11:56;;;;;;;43.07;25.97;;;4.10;99.90;;;;;;8444770;27;20185;-72
2022/12/06 00:16:02;;;;;;;38.23;23.80;;;4.10;99.90;;;;;;8462107;27;20202;-71
2022/12/06 00:20:04;;;;;;;38.27;22.47;;;4.10;99.90;;;;;;8439131;27;20244;-72
2022/12/06 00:24:16;;;;;;;33.47;20.10;;;4.10;99.90;;;;;;8463851;27;20194;-71
2022/12/06 00:28:17;;;;;;;26.07;15.60;;;4.10;99.90;;;;;;8461098;27;20199;-71
2022/12/06 00:32:18;;;;;;;19.90;13.97;;;4.10;99.90;;;;;;8465504;27;20191;-72
2022/12/06 00:36:21;;;;;;;23.30;15.77;;;4.10;99.90;;;;;;8452494;27;20266;-71
2022/12/06 00:40:22;;;;;;;23.87;16.37;;;4.10;99.90;;;;;;8448391;27;20179;-72
2022/12/06 00:44:23;;;;;;;17.13;12.63;;;4.00;99.90;;;;;;8451017;27;20266;-71
2022/12/06 00:48:24;;;;;;;17.57;13.67;;;4.00;99.90;;;;;;8444540;27;20203;-72
2022/12/06 00:52:24;;;;;;;16.77;11.80;;;4.00;99.90;;;;;;8445284;27;20498;-72
2022/12/06 00:56:26;;;;;;;16.17;12.37;;;4.00;99.90;;;;;;8460973;27;20197;-71
2022/12/06 01:00:27;;;;;;;18.57;12.40;;;4.00;99.90;;;;;;8446493;28;20321;-72
2022/12/06 01:04:28;;;;;;;18.47;12.67;;;4.00;99.90;;;;;;8462092;27;20266;-72
2022/12/06 01:08:29;;;;;;;15.47;11.60;;;4.00;99.90;;;;;;8447019;27;20543;-72
2022/12/06 01:12:29;;;;;;;14.97;11.10;;;4.00;99.90;;;;;;8445016;27;20215;-72
2022/12/06 01:16:30;;;;;;;16.33;12.00;;;4.00;99.90;;;;;;8441241;28;20190;-72
2022/12/06 01:20:32;;;;;;;14.57;10.77;;;4.00;99.90;;;;;;8442992;28;20179;-72
2022/12/06 01:24:33;;;;;;;18.33;12.57;;;4.00;99.90;;;;;;8440920;27;20191;-72
2022/12/06 01:28:34;;;;;;;20.70;14.27;;;4.00;99.90;;;;;;8449398;27;20230;-72
2022/12/06 01:32:35;;;;;;;16.73;12.80;;;4.00;99.90;;;;;;8437763;28;20657;-72
2022/12/06 01:36:36;;;;;;;17.57;12.87;;;3.90;99.90;;;;;;8458892;28;20182;-72
2022/12/06 01:40:47;;;;;;;15.57;12.37;;;3.90;99.90;;;;;;8444036;27;20184;-72
2022/12/06 01:44:51;;;;;;;19.10;13.93;;;3.90;99.90;;;;;;8442068;28;20202;-72
2022/12/06 01:49:07;;;;;;;16.93;12.47;;;3.90;99.90;;;;;;8440261;28;20242;-72
2022/12/06 01:53:10;;;;;;;17.43;11.67;;;3.90;99.90;;;;;;8460976;27;20180;-72
2022/12/06 01:57:13;;;;;;;16.03;11.27;;;3.90;99.90;;;;;;8443892;27;20207;-71
2022/12/06 02:01:14;;;;;;;14.77;10.47;;;3.90;99.90;;;;;;8447416;27;20183;-72
2022/12/06 02:05:16;;;;;;;13.30;9.87;;;3.90;99.90;;;;;;8449003;27;20175;-72
2022/12/06 02:09:18;;;;;;;13.30;10.07;;;3.90;99.90;;;;;;8447085;27;20218;-72
2022/12/06 02:13:21;;;;;;;11.53;9.37;;;3.80;99.90;;;;;;8462755;27;20203;-72
2022/12/06 02:17:36;;;;;;;13.30;10.03;;;3.80;99.90;;;;;;8450102;27;20184;-72
2022/12/06 02:22:07;;;;;;;16.40;11.73;;;3.80;99.90;;;;;;8441910;27;20188;-72
2022/12/06 02:26:32;;;;;;;14.07;10.63;;;3.80;99.90;;;;;;8440967;27;20188;-72
2022/12/06 02:30:48;;;;;;;13.93;10.30;;;3.80;99.90;;;;;;8435540;27;20210;-72
2022/12/06 02:35:09;;;;;;;18.47;12.77;;;3.80;99.90;;;;;;8447364;27;20179;-72
2022/12/06 02:39:37;;;;;;;18.60;12.60;;;3.70;99.90;;;;;;8427056;27;20195;-72
2022/12/06 02:43:47;;;;;;;17.07;11.57;;;3.70;99.90;;;;;;8447689;27;20190;-71
2022/12/06 02:47:50;;;;;;;16.20;11.27;;;3.70;99.90;;;;;;8449213;27;20281;-73
2022/12/06 02:51:53;;;;;;;14.10;10.73;;;3.70;99.90;;;;;;8446643;27;20172;-71
2022/12/06 02:55:55;;;;;;;17.50;11.30;;;3.60;99.90;;;;;;8446491;27;20177;-71
2022/12/06 02:59:56;;;;;;;17.87;12.20;;;3.60;99.90;;;;;;8446121;27;20203;-70
2022/12/06 03:04:15;;;;;;;15.77;11.57;;;3.60;99.90;;;;;;8443331;27;20245;-71
2022/12/06 03:08:27;;;;;;;14.07;11.20;;;3.60;99.90;;;;;;8431522;27;20558;-72
2022/12/06 03:12:55;;;;;;;14.97;10.17;;;3.60;99.90;;;;;;8450072;27;20247;-71
2022/12/06 03:17:20;;;;;;;15.90;10.87;;;3.60;99.90;;;;;;8463818;27;20202;-72
2022/12/06 03:21:28;;;;;;;15.07;10.73;;;3.60;99.90;;;;;;8433405;27;20182;-72
2022/12/06 03:25:33;;;;;;;17.37;12.17;;;3.60;99.90;;;;;;8451196;27;20190;-72
2022/12/06 03:29:38;;;;;;;16.73;12.40;;;3.60;99.90;;;;;;8441004;27;20207;-72
2022/12/06 03:33:44;;;;;;;13.43;8.83;;;3.50;99.90;;;;;;8444591;27;20194;-72
2022/12/06 03:37:50;;;;;;;14.37;10.80;;;3.50;99.90;;;;;;8446859;27;20183;-70
2022/12/06 03:41:54;;;;;;;13.47;10.30;;;3.50;99.90;;;;;;8459255;27;20180;-72
2022/12/06 03:46:09;;;;;;;12.97;10.17;;;3.50;99.90;;;;;;8448399;27;20248;-72
2022/12/06 03:50:18;;;;;;;13.60;9.57;;;3.50;99.90;;;;;;8462563;27;20203;-72
2022/12/06 03:54:18;;;;;;;15.60;10.60;;;3.60;99.90;;;;;;8465035;27;20276;-71
2022/12/06 03:58:19;;;;;;;14.17;10.60;;;3.60;99.90;;;;;;8446411;27;20195;-72
2022/12/06 04:02:20;;;;;;;15.73;11.80;;;3.60;99.90;;;;;;8442342;27;20183;-72
2022/12/06 04:06:21;;;;;;;19.10;11.47;;;3.50;99.90;;;;;;8448894;27;20179;-71
2022/12/06 04:10:21;;;;;;;16.20;11.37;;;3.50;99.90;;;;;;8455734;27;20279;-71
2022/12/06 04:14:22;;;;;;;17.87;11.50;;;3.40;99.90;;;;;;8466428;27;20190;-73
2022/12/06 04:18:24;;;;;;;15.00;10.97;;;3.40;99.90;;;;;;8469999;27;20209;-73
2022/12/06 04:26:44;;;;;;;15.10;10.43;;;3.30;99.90;;;;;;8472430;27;20195;-72
2022/12/06 04:39:24;;;;;;;13.00;9.17;;;3.30;99.90;;;;;;8493867;27;20199;-73
2022/12/06 04:43:42;;;;;;;13.80;9.63;;;3.40;99.90;;;;;;8477657;27;20167;-73
2022/12/06 04:47:43;;;;;;;13.87;9.50;;;3.40;99.90;;;;;;8476762;27;20208;-71
2022/12/06 04:51:44;;;;;;;14.60;10.03;;;3.30;99.90;;;;;;8466554;27;20278;-73
2022/12/06 04:55:46;;;;;;;14.63;10.63;;;3.30;99.90;;;;;;8471199;27;20205;-72
2022/12/06 04:59:48;;;;;;;14.93;10.40;;;3.30;99.90;;;;;;8469386;27;20203;-73
2022/12/06 05:03:49;;;;;;;15.63;10.83;;;3.20;99.90;;;;;;8467882;28;20179;-72
2022/12/06 05:07:49;;;;;;;14.63;11.13;;;3.20;99.90;;;;;;8480717;27;20256;-72
2022/12/06 05:11:50;;;;;;;16.73;11.37;;;3.20;99.90;;;;;;8474543;28;20175;-72
2022/12/06 05:15:56;;;;;;;16.63;10.80;;;3.20;99.90;;;;;;8473135;28;20167;-73
2022/12/06 05:19:57;;;;;;;13.57;9.40;;;3.20;99.90;;;;;;8461997;28;20263;-73
2022/12/06 05:23:58;;;;;;;14.60;9.73;;;3.20;99.90;;;;;;8474530;27;20220;-72
2022/12/06 05:27:59;;;;;;;15.03;10.20;;;3.20;99.90;;;;;;8470354;27;20211;-73
2022/12/06 05:32:00;;;;;;;16.00;10.83;;;3.20;99.90;;;;;;8481629;27;20168;-72
2022/12/06 05:36:10;;;;;;;13.50;9.77;;;3.20;99.90;;;;;;8497981;27;20207;-72
2022/12/06 05:40:11;;;;;;;15.23;10.27;;;3.10;99.90;;;;;;8481693;27;20191;-73
2022/12/06 05:44:12;;;;;;;14.73;10.30;;;3.10;99.90;;;;;;8465316;27;20184;-73
2022/12/06 05:48:13;;;;;;;15.10;9.67;;;3.00;99.90;;;;;;8478047;27;20205;-72
2022/12/06 05:52:17;;;;;;;14.53;10.20;;;3.00;99.90;;;;;;8486698;27;20278;-72
2022/12/06 05:56:17;;;;;;;12.27;9.70;;;3.00;99.90;;;;;;8471238;27;20191;-72
2022/12/06 06:00:19;;;;;;;14.90;10.23;;;3.00;99.90;;;;;;8476322;27;20223;-72
2022/12/06 06:04:20;;;;;;;14.90;10.50;;;3.00;99.90;;;;;;8476120;27;20176;-73
2022/12/06 06:08:27;;;;;;;17.43;11.37;;;3.10;99.90;;;;;;8478297;27;20244;-72
2022/12/06 06:12:28;;;;;;;15.80;10.83;;;3.00;99.90;;;;;;8471956;27;20180;-73
2022/12/06 06:16:28;;;;;;;17.40;10.57;;;2.90;99.90;;;;;;8479286;27;20202;-72
2022/12/06 06:20:29;;;;;;;15.10;9.57;;;2.90;99.90;;;;;;8488994;27;20197;-73
2022/12/06 06:24:41;;;;;;;13.83;8.47;;;2.90;99.90;;;;;;8466972;27;20205;-73
2022/12/06 06:28:42;;;;;;;12.17;9.03;;;2.80;99.90;;;;;;8467155;27;20206;-72
2022/12/06 06:32:42;;;;;;;13.00;9.47;;;2.80;99.90;;;;;;8453017;27;20247;-73
2022/12/06 06:36:43;;;;;;;12.10;8.63;;;2.80;99.90;;;;;;8451980;27;20470;-72
2022/12/06 06:40:44;;;;;;;13.57;9.03;;;2.80;99.90;;;;;;8452353;27;20651;-72
2022/12/06 06:44:45;;;;;;;11.57;9.07;;;2.80;99.90;;;;;;8458654;27;20184;-73
2022/12/06 06:48:46;;;;;;;11.80;8.23;;;2.80;99.90;;;;;;8469808;27;20211;-72
2022/12/06 06:52:47;;;;;;;10.27;7.80;;;2.80;99.90;;;;;;8463059;27;20206;-72
2022/12/06 06:56:48;;;;;;;9.30;7.00;;;2.70;99.90;;;;;;8466096;27;20198;-72
2022/12/06 07:00:58;;;;;;;9.63;7.57;;;2.70;99.90;;;;;;8462692;27;20179;-73
2022/12/06 07:04:58;;;;;;;11.00;7.43;;;2.70;99.90;;;;;;8464088;27;20208;-72
2022/12/06 07:08:59;;;;;;;13.60;7.57;;;2.60;99.90;;;;;;8460601;27;20413;-72
2022/12/06 07:13:00;;;;;;;8.93;6.93;;;2.60;99.90;;;;;;8468712;27;20187;-73
2022/12/06 07:17:01;;;;;;;9.80;6.87;;;2.60;99.90;;;;;;8465882;27;20191;-72
2022/12/06 07:21:04;;;;;;;11.10;6.90;;;2.70;99.90;;;;;;8458949;27;20188;-73
2022/12/06 07:25:05;;;;;;;12.57;7.83;;;2.70;99.90;;;;;;8467969;27;20194;-72
2022/12/06 07:29:06;;;;;;;9.13;7.00;;;2.70;99.90;;;;;;8455648;27;20203;-71
2022/12/06 07:33:06;;;;;;;12.33;7.67;;;2.60;99.90;;;;;;8448636;27;20184;-71
2022/12/06 07:37:07;;;;;;;10.90;7.77;;;2.60;99.90;;;;;;8449705;27;20183;-71
2022/12/06 07:45:30;;;;;;;8.97;7.10;;;2.40;99.90;;;;;;8464154;27;20206;-72
2022/12/06 07:49:31;;;;;;;9.77;6.87;;;2.40;99.90;;;;;;8464193;27;20235;-71
2022/12/06 07:53:32;;;;;;;9.03;7.20;;;2.30;99.90;;;;;;8450229;27;20198;-71
2022/12/06 07:57:33;;;;;;;8.43;6.87;;;2.30;99.90;;;;;;8468836;27;20250;-72
2022/12/06 08:01:34;;;;;;;8.97;6.57;;;2.20;99.90;;;;;;8472868;27;20175;-72
2022/12/06 08:05:34;;;;;;;10.23;6.93;;;2.20;99.90;;;;;;8459567;27;20179;-72
2022/12/06 08:09:35;;;;;;;8.97;6.53;;;2.20;99.90;;;;;;8468916;27;20211;-71
2022/12/06 08:13:36;;;;;;;9.80;5.77;;;2.20;99.90;;;;;;8455008;27;20180;-72
2022/12/06 08:17:38;;;;;;;8.73;6.83;;;2.20;99.90;;;;;;8466822;27;20160;-71
2022/12/06 08:21:39;;;;;;;8.17;5.93;;;2.30;99.90;;;;;;8467655;27;20186;-73
2022/12/06 08:25:40;;;;;;;8.17;6.43;;;2.40;99.90;;;;;;8462483;27;20191;-73
2022/12/06 08:29:44;;;;;;;10.40;7.60;;;2.40;99.90;;;;;;8455175;27;20211;-73
2022/12/06 08:33:45;;;;;;;8.50;6.33;;;2.40;99.90;;;;;;8455349;27;20270;-72
2022/12/06 08:37:46;;;;;;;8.17;6.47;;;2.60;99.90;;;;;;8459495;27;20198;-71
2022/12/06 08:42:01;;;;;;;7.03;5.70;;;2.80;99.90;;;;;;8465269;27;20182;-71
2022/12/06 08:46:01;;;;;;;7.27;5.90;;;3.00;99.90;;;;;;8472495;27;20214;-72
2022/12/06 08:50:03;;;;;;;8.27;5.80;;;3.30;99.90;;;;;;8460757;27;20211;-72
2022/12/06 08:54:06;;;;;;;7.43;5.67;;;3.40;99.90;;;;;;8462246;27;20184;-73
2022/12/06 08:58:07;;;;;;;6.57;5.37;;;3.50;99.90;;;;;;8484158;27;20194;-71
2022/12/06 09:02:12;;;;;;;6.70;5.00;;;3.50;99.90;;;;;;8465609;27;20183;-72
2022/12/06 09:06:13;;;;;;;6.73;5.30;;;3.50;99.90;;;;;;8487014;27;20208;-73
2022/12/06 09:10:14;;;;;;;6.83;5.17;;;3.50;99.90;;;;;;8468826;27;20215;-72
2022/12/06 09:14:17;;;;;;;7.03;4.87;;;3.50;99.90;;;;;;8461468;27;20174;-73
2022/12/06 09:18:18;;;;;;;5.60;4.20;;;3.60;99.90;;;;;;8472668;28;20220;-72
2022/12/06 09:22:21;;;;;;;4.60;4.00;;;3.60;99.90;;;;;;8458378;28;20200;-73
2022/12/06 09:26:22;;;;;;;5.70;4.73;;;3.60;99.90;;;;;;8471816;28;20183;-72
2022/12/06 09:30:23;;;;;;;6.87;4.97;;;3.60;99.90;;;;;;8470479;28;20239;-71
2022/12/06 09:34:24;;;;;;;6.47;4.63;;;3.60;99.90;;;;;;8471636;28;20179;-71
2022/12/06 09:38:28;;;;;;;6.03;4.83;;;3.60;99.90;;;;;;8479496;28;20187;-71
2022/12/06 09:42:31;;;;;;;5.97;4.87;;;3.60;99.90;;;;;;8471266;28;20211;-72
2022/12/06 09:46:50;;;;;;;5.53;4.70;;;3.60;99.90;;;;;;8488787;28;20205;-72
2022/12/06 09:51:06;;;;;;;8.20;5.20;;;3.60;99.90;;;;;;8476666;28;20211;-72
2022/12/06 09:55:15;;;;;;;5.17;4.57;;;3.60;99.90;;;;;;8463440;28;20522;-73
2022/12/06 09:59:25;;;;;;;6.10;4.87;;;3.60;99.90;;;;;;8480289;28;20204;-72
2022/12/06 10:03:41;;;;;;;5.47;4.80;;;3.60;99.90;;;;;;8477186;28;20187;-72
2022/12/06 10:08:02;;;;;;;8.43;5.93;;;3.60;99.90;;;;;;8468416;27;20224;-73
2022/12/06 10:12:23;;;;;;;6.00;4.63;;;3.50;99.90;;;;;;8471992;28;20180;-73
2022/12/06 10:16:46;;;;;;;5.87;5.27;;;3.70;99.90;;;;;;8464156;27;20210;-72
2022/12/06 10:21:00;;;;;;;4.57;4.17;;;3.80;99.90;;;;;;8479824;27;20191;-73
2022/12/06 10:25:10;;;;;;;5.40;4.63;;;3.90;99.90;;;;;;8497067;27;20168;-73
2022/12/06 10:29:41;;;;;;;6.40;5.27;;;4.00;99.90;;;;;;8493768;27;20237;-72
2022/12/06 10:33:52;;;;;;;7.40;5.63;;;4.00;99.90;;;;;;8500739;27;20195;-72
2022/12/06 10:38:05;;;;;;;8.77;6.47;;;4.00;99.90;;;;;;8484747;27;20196;-74
2022/12/06 10:42:19;;;;;;;6.40;5.40;;;4.00;99.90;;;;;;8489785;27;20164;-73
2022/12/06 10:51:10;;;;;;;7.43;6.23;;;3.90;99.90;;;;;;8498437;27;20231;-73
2022/12/06 10:55:18;;;;;;;8.27;6.37;;;4.00;99.90;;;;;;8481064;27;20175;-73
2022/12/06 10:59:41;;;;;;;7.40;6.60;;;4.10;99.90;;;;;;8480713;27;20236;-72
2022/12/06 11:03:57;;;;;;;7.67;5.90;;;4.00;99.90;;;;;;8482990;22;20235;-73
2022/12/06 11:08:09;;;;;;;6.43;5.53;;;4.00;99.90;;;;;;8447146;27;20231;-73
2022/12/06 11:12:33;;;;;;;7.00;6.30;;;4.00;99.90;;;;;;8478812;22;20239;-74
2022/12/06 11:16:40;;;;;;;6.67;5.23;;;4.10;99.90;;;;;;8446815;28;20190;-74
2022/12/06 11:21:05;;;;;;;6.17;5.57;;;4.20;99.90;;;;;;8453543;28;20489;-74
2022/12/06 11:25:41;;;;;;;6.83;5.20;;;4.30;99.90;;;;;;8436758;28;20189;-74
2022/12/06 11:29:53;;;;;;;6.37;5.10;;;4.40;99.90;;;;;;8452548;28;20279;-75
2022/12/06 11:33:54;;;;;;;5.83;5.07;;;4.50;99.90;;;;;;8463411;22;20229;-75
2022/12/06 11:37:59;;;;;;;7.33;4.97;;;4.40;99.90;;;;;;8435005;27;20181;-76
2022/12/06 11:42:03;;;;;;;5.53;4.47;;;4.30;99.90;;;;;;8449134;27;20172;-74
2022/12/06 11:46:05;;;;;;;6.33;4.97;;;4.10;99.90;;;;;;8446217;27;20193;-76
2022/12/06 11:50:17;;;;;;;6.57;4.80;;;4.00;99.90;;;;;;8439319;27;20234;-74
2022/12/06 11:54:30;;;;;;;7.00;4.97;;;3.90;99.90;;;;;;8449760;27;20184;-78
2022/12/06 11:58:41;;;;;;;6.80;5.33;;;3.80;99.90;;;;;;8435479;27;20267;-76
2022/12/06 12:02:44;;;;;;;7.03;4.67;;;3.60;99.90;;;;;;8436422;27;20469;-76
2022/12/06 12:06:46;;;;;;;6.47;5.60;;;3.50;99.90;;;;;;8455704;27;20196;-76
2022/12/06 12:10:58;;;;;;;7.17;5.10;;;3.40;99.90;;;;;;8437776;27;20212;-76
2022/12/06 12:14:58;;;;;;;7.73;6.20;;;3.40;99.90;;;;;;8433698;27;20191;-74
2022/12/06 12:19:04;;;;;;;6.47;5.70;;;3.40;99.90;;;;;;8428061;27;20180;-78
2022/12/06 12:23:13;;;;;;;7.33;6.20;;;3.50;99.90;;;;;;8438525;27;20341;-76
2022/12/06 12:27:40;;;;;;;8.63;6.80;;;3.60;99.90;;;;;;8427166;27;20183;-78
2022/12/06 12:32:08;;;;;;;7.57;6.20;;;3.60;99.90;;;;;;8452092;27;20216;-79
2022/12/06 12:36:26;;;;;;;9.30;6.83;;;3.60;99.90;;;;;;8447819;27;20221;-79
2022/12/06 12:40:40;;;;;;;9.73;7.10;;;3.60;99.90;;;;;;8431761;27;20192;-78
2022/12/06 12:44:45;;;;;;;7.00;6.27;;;3.50;99.90;;;;;;8435014;27;20176;-75
2022/12/06 12:48:48;;;;;;;9.30;5.87;;;3.50;99.90;;;;;;8438866;27;20223;-76
2022/12/06 12:52:50;;;;;;;7.93;6.40;;;3.40;99.90;;;;;;8460750;27;20180;-76
2022/12/06 12:56:51;;;;;;;9.47;7.33;;;3.40;99.90;;;;;;8457367;27;20245;-77
2022/12/06 13:00:54;;;;;;;8.13;6.57;;;3.40;99.90;;;;;;8441664;27;20532;-76
2022/12/06 13:05:09;;;;;;;8.87;7.27;;;3.40;99.90;;;;;;8434278;28;20210;-77
2022/12/06 13:09:51;;;;;;;11.70;7.50;;;3.40;99.90;;;;;;8434447;27;20288;-76
2022/12/06 13:13:54;;;;;;;10.97;7.87;;;3.40;99.90;;;;;;8403347;28;20188;-76
2022/12/06 13:17:59;;;;;;;8.23;6.73;;;3.30;99.90;;;;;;8430632;28;20202;-78
2022/12/06 13:22:03;;;;;;;10.23;7.40;;;3.30;99.90;;;;;;8447151;28;20271;-76
2022/12/06 13:26:24;;;;;;;9.83;6.87;;;3.30;99.90;;;;;;8428971;28;20190;-74
2022/12/06 13:30:29;;;;;;;9.33;7.50;;;3.20;99.90;;;;;;8427503;28;20215;-76
2022/12/06 13:34:39;;;;;;;9.60;6.73;;;3.20;99.90;;;;;;8437426;28;20204;-78
2022/12/06 13:38:42;;;;;;;8.33;7.23;;;3.20;99.90;;;;;;8440501;28;20188;-76
2022/12/06 13:42:44;;;;;;;10.63;7.20;;;3.20;99.90;;;;;;8460140;28;20263;-76
2022/12/06 13:46:45;;;;;;;9.77;7.47;;;3.20;99.90;;;;;;8435430;28;20183;-78
2022/12/06 13:50:52;;;;;;;10.60;8.10;;;3.20;99.90;;;;;;8441184;27;20208;-77
2022/12/06 13:54:54;;;;;;;9.77;7.30;;;3.20;99.90;;;;;;8459932;27;20259;-78
2022/12/06 13:58:57;;;;;;;11.37;8.20;;;3.10;99.90;;;;;;8435215;27;20214;-76
2022/12/06 14:03:01;;;;;;;9.13;7.27;;;3.10;99.90;;;;;;8439674;27;20620;-78
2022/12/06 14:07:10;;;;;;;10.73;8.03;;;3.10;99.90;;;;;;8434452;27;20177;-76
2022/12/06 14:11:24;;;;;;;11.27;8.30;;;3.00;99.90;;;;;;8442765;27;20313;-79
2022/12/06 14:15:25;;;;;;;11.33;7.90;;;3.00;99.90;;;;;;8444715;27;20181;-76
2022/12/06 14:19:45;;;;;;;10.63;8.20;;;3.00;99.90;;;;;;8437747;27;20237;-78
2022/12/06 14:23:49;;;;;;;10.23;7.87;;;2.90;99.90;;;;;;8438322;27;20179;-76
2022/12/06 14:28:01;;;;;;;11.20;7.80;;;2.80;99.90;;;;;;8446680;27;20251;-76
2022/12/06 14:32:02;;;;;;;9.47;7.03;;;2.80;99.90;;;;;;8447784;27;20191;-80
2022/12/06 14:36:03;;;;;;;11.73;8.37;;;2.80;99.90;;;;;;8445023;27;20179;-76
2022/12/06 14:40:22;;;;;;;10.53;7.60;;;2.70;99.90;;;;;;8440037;27;20184;-80
2022/12/06 14:44:31;;;;;;;11.80;7.90;;;2.70;99.90;;;;;;8441388;27;20206;-79
2022/12/06 14:53:01;;;;;;;9.90;7.93;;;2.60;99.90;;;;;;8461142;27;20210;-77
2022/12/06 14:57:03;;;;;;;11.53;8.13;;;2.60;99.90;;;;;;8427998;27;20200;-76
2022/12/06 15:01:10;;;;;;;11.37;8.13;;;2.60;99.90;;;;;;8437635;27;20314;-79
2022/12/06 15:05:36;;;;;;;11.90;8.43;;;2.60;99.90;;;;;;8441501;27;20266;-78
2022/12/06 15:09:45;;;;;;;11.23;8.43;;;2.50;99.90;;;;;;8430708;27;20241;-77
2022/12/06 15:14:11;;;;;;;10.80;7.67;;;2.50;99.90;;;;;;8455177;27;20173;-77
2022/12/06 15:18:25;;;;;;;12.00;8.30;;;2.50;99.90;;;;;;8435214;27;20443;-76
2022/12/06 15:22:28;;;;;;;12.53;8.93;;;2.50;99.90;;;;;;8440667;27;20183;-77
2022/12/06 15:26:28;;;;;;;14.30;9.37;;;2.50;99.90;;;;;;8443501;27;20195;-78
2022/12/06 15:30:29;;;;;;;11.03;8.80;;;2.50;99.90;;;;;;8458183;27;20204;-74
2022/12/06 15:34:34;;;;;;;13.67;9.00;;;2.40;99.90;;;;;;8460277;27;20223;-75
2022/12/06 15:38:35;;;;;;;12.10;9.47;;;2.50;99.90;;;;;;8442796;27;20216;-76
2022/12/06 15:42:35;;;;;;;14.43;9.30;;;2.50;99.90;;;;;;8424536;27;20263;-79
2022/12/06 15:46:36;;;;;;;13.73;9.77;;;2.50;99.90;;;;;;8436046;27;20194;-74
2022/12/06 15:50:37;;;;;;;13.80;9.67;;;2.50;99.90;;;;;;8443476;27;20211;-75
2022/12/06 15:54:38;;;;;;;13.90;10.00;;;2.50;99.90;;;;;;8436010;27;20179;-77
2022/12/06 15:58:40;;;;;;;13.13;9.43;;;2.50;99.90;;;;;;8451052;27;20203;-76
2022/12/06 16:02:41;;;;;;;14.63;10.63;;;2.50;99.90;;;;;;8442427;27;20184;-76
2022/12/06 16:06:43;;;;;;;14.67;10.33;;;2.60;99.90;;;;;;8441715;27;20207;-77
2022/12/06 16:10:43;;;;;;;14.07;10.70;;;2.60;99.90;;;;;;8439017;27;20219;-76
2022/12/06 16:14:44;;;;;;;15.53;11.17;;;2.50;99.90;;;;;;8431824;27;20176;-76
2022/12/06 16:18:46;;;;;;;18.43;12.03;;;2.50;99.90;;;;;;8435696;27;20189;-74
2022/12/06 16:27:07;;;;;;;18.60;11.67;;;2.50;99.90;;;;;;8458399;27;20200;-76
2022/12/06 16:31:13;;;;;;;17.30;11.73;;;2.50;99.90;;;;;;8438063;27;20218;-78
2022/12/06 16:35:13;;;;;;;18.87;12.67;;;2.50;99.90;;;;;;8438183;27;20210;-77
2022/12/06 16:39:14;;;;;;;18.43;11.47;;;2.40;99.90;;;;;;8439497;27;20183;-81
2022/12/06 16:43:19;;;;;;;20.47;12.73;;;2.40;99.90;;;;;;8438880;27;20388;-75
2022/12/06 16:47:20;;;;;;;18.50;12.40;;;2.40;99.90;;;;;;8428924;27;20179;-79
2022/12/06 16:51:21;;;;;;;17.47;10.90;;;2.40;99.90;;;;;;8438834;27;20234;-76
2022/12/06 16:55:22;;;;;;;19.17;11.67;;;2.40;99.90;;;;;;8438417;27;20202;-76
2022/12/06 16:59:23;;;;;;;17.57;11.33;;;2.40;99.90;;;;;;8436583;27;20210;-77
2022/12/06 17:03:24;;;;;;;19.10;12.27;;;2.40;99.90;;;;;;8438351;27;20271;-79
2022/12/06 17:07:25;;;;;;;20.80;12.03;;;2.40;99.90;;;;;;8443306;28;20552;-73
2022/12/06 17:15:48;;;;;;;16.00;11.07;;;2.40;99.90;;;;;;8450644;28;20232;-81
2022/12/06 17:19:49;;;;;;;19.20;12.10;;;2.40;99.90;;;;;;8436613;28;20294;-77
2022/12/06 17:23:50;;;;;;;18.87;11.87;;;2.40;99.90;;;;;;8451835;27;20176;-78
2022/12/06 17:27:51;;;;;;;16.77;11.80;;;2.30;99.90;;;;;;8441144;27;20241;-77
2022/12/06 17:31:55;;;;;;;16.07;11.40;;;2.30;99.90;;;;;;8448756;27;20252;-75
2022/12/06 17:35:56;;;;;;;17.47;11.23;;;2.30;99.90;;;;;;8439954;27;20218;-79
2022/12/06 17:39:57;;;;;;;19.17;11.07;;;2.30;99.90;;;;;;8442003;27;20184;-80
2022/12/06 17:43:58;;;;;;;16.27;10.63;;;2.30;99.90;;;;;;8439850;27;20179;-80
2022/12/06 17:47:59;;;;;;;16.40;10.80;;;2.30;99.90;;;;;;8446663;27;20223;-78
2022/12/06 17:52:00;;;;;;;19.60;11.47;;;2.30;99.90;;;;;;8446918;27;20592;-79
2022/12/06 17:56:24;;;;;;;18.83;11.50;;;2.30;99.90;;;;;;8443877;27;20319;-77
2022/12/06 18:00:25;;;;;;;17.63;10.37;;;2.30;99.90;;;;;;8433434;27;20232;-81
2022/12/06 18:04:27;;;;;;;15.67;10.23;;;2.30;99.90;;;;;;8444623;27;20301;-76
2022/12/06 18:08:28;;;;;;;14.00;9.70;;;2.30;99.90;;;;;;8459699;27;20581;-78
2022/12/06 18:12:30;;;;;;;14.40;10.10;;;2.30;99.90;;;;;;8460429;27;20184;-74
2022/12/06 18:16:34;;;;;;;16.13;9.83;;;2.30;99.90;;;;;;8454317;27;20269;-79
2022/12/06 18:20:35;;;;;;;15.10;9.70;;;2.20;99.90;;;;;;8447397;27;20243;-78
2022/12/06 18:24:37;;;;;;;13.53;8.53;;;2.20;99.90;;;;;;8443974;27;20210;-81
2022/12/06 18:28:40;;;;;;;14.47;9.07;;;2.20;99.90;;;;;;8444138;27;20392;-73
2022/12/06 18:32:41;;;;;;;12.07;8.90;;;2.20;99.90;;;;;;8429233;27;20215;-74
2022/12/06 18:36:42;;;;;;;13.87;8.97;;;2.20;99.90;;;;;;8445051;27;20781;-77
2022/12/06 18:40:44;;;;;;;11.83;8.63;;;2.20;99.90;;;;;;8443355;27;20184;-78
2022/12/06 18:44:45;;;;;;;11.97;8.63;;;2.20;99.90;;;;;;8458616;27;20187;-79
2022/12/06 18:48:50;;;;;;;12.63;8.53;;;2.10;99.90;;;;;;8434878;27;20195;-76
2022/12/06 18:52:50;;;;;;;10.93;8.03;;;2.20;99.90;;;;;;8443663;27;20179;-77
2022/12/06 18:56:51;;;;;;;12.80;8.37;;;2.20;99.90;;;;;;8442535;27;20196;-79
2022/12/06 19:00:52;;;;;;;12.37;8.30;;;2.10;99.90;;;;;;8439675;27;20187;-78
2022/12/06 19:04:53;;;;;;;13.23;8.70;;;2.10;99.90;;;;;;8439543;27;20254;-76
2022/12/06 19:08:57;;;;;;;12.97;8.87;;;2.10;99.90;;;;;;8437632;27;20211;-77
2022/12/06 19:12:58;;;;;;;14.10;9.60;;;2.10;99.90;;;;;;8442939;27;20180;-80
2022/12/06 19:16:58;;;;;;;16.40;9.77;;;2.10;99.90;;;;;;8433383;27;20183;-76
2022/12/06 19:21:00;;;;;;;17.07;11.37;;;2.10;99.90;;;;;;8435107;27;20309;-78
2022/12/06 19:25:02;;;;;;;19.60;11.20;;;2.10;99.90;;;;;;8423751;27;20276;-75
2022/12/06 19:29:04;;;;;;;18.03;11.27;;;2.00;99.90;;;;;;8438988;27;20206;-76
2022/12/06 19:33:05;;;;;;;16.33;10.57;;;2.00;99.90;;;;;;8442682;27;20195;-77
2022/12/06 19:37:06;;;;;;;20.00;11.83;;;2.00;99.90;;;;;;8442690;27;20253;-81
2022/12/06 19:41:11;;;;;;;19.40;11.57;;;2.00;99.90;;;;;;8435030;27;20230;-78
2022/12/06 19:45:12;;;;;;;18.97;11.97;;;2.00;99.90;;;;;;8441944;27;20179;-80
2022/12/06 19:49:16;;;;;;;18.77;11.67;;;2.00;99.90;;;;;;8454383;27;20191;-81
2022/12/06 19:53:17;;;;;;;19.17;11.90;;;2.00;99.90;;;;;;8459551;27;20182;-79
2022/12/06 19:57:18;;;;;;;18.93;12.00;;;2.00;99.90;;;;;;8433044;27;20201;-76
2022/12/06 20:01:22;;;;;;;19.97;12.23;;;2.00;99.90;;;;;;8450559;27;20266;-78
2022/12/06 20:05:23;;;;;;;18.43;11.50;;;2.00;99.90;;;;;;8437315;27;20195;-75
2022/12/06 20:09:26;;;;;;;16.67;11.60;;;2.00;99.90;;;;;;8421559;27;20204;-78
2022/12/06 20:13:28;;;;;;;17.50;11.63;;;2.00;99.90;;;;;;8447364;27;20176;-75
2022/12/06 20:17:29;;;;;;;18.27;11.20;;;2.00;99.90;;;;;;8415801;27;20191;-81
2022/12/06 20:21:30;;;;;;;15.63;10.67;;;2.00;99.90;;;;;;8438261;27;20187;-77
2022/12/06 20:25:31;;;;;;;16.30;11.50;;;2.00;99.90;;;;;;8459905;27;20204;-78
2022/12/06 20:29:32;;;;;;;16.17;10.13;;;2.00;99.90;;;;;;8452473;27;20211;-80
2022/12/06 20:33:33;;;;;;;15.73;10.67;;;2.00;99.90;;;;;;8456572;27;20229;-79
2022/12/06 20:37:35;;;;;;;15.00;10.37;;;2.00;99.90;;;;;;8437708;27;20179;-76
2022/12/06 20:41:35;;;;;;;17.17;11.03;;;2.00;99.90;;;;;;8434686;27;20195;-76
2022/12/06 20:45:36;;;;;;;16.00;9.87;;;2.00;99.90;;;;;;8452614;27;20188;-77
2022/12/06 20:49:37;;;;;;;15.10;10.23;;;2.00;99.90;;;;;;8457439;27;20195;-81
2022/12/06 20:53:39;;;;;;;13.20;9.47;;;2.00;99.90;;;;;;8430025;27;20183;-78
2022/12/06 20:57:40;;;;;;;11.73;9.00;;;2.00;99.90;;;;;;8435906;27;20191;-76
2022/12/06 21:01:41;;;;;;;12.50;9.03;;;2.00;99.90;;;;;;8420205;27;20194;-77
2022/12/06 21:05:42;;;;;;;10.97;8.50;;;2.00;99.90;;;;;;8453987;27;20297;-76
2022/12/06 21:09:43;;;;;;;12.17;8.27;;;1.90;99.90;;;;;;8437359;27;21404;-76
2022/12/06 21:13:45;;;;;;;11.57;8.17;;;1.90;99.90;;;;;;8431125;28;20204;-79
2022/12/06 21:17:46;;;;;;;10.70;7.27;;;1.90;99.90;;;;;;8436493;28;20191;-78
2022/12/06 21:21:52;;;;;;;11.83;7.57;;;1.90;99.90;;;;;;8437722;28;20199;-78
2022/12/06 21:25:53;;;;;;;10.57;7.37;;;1.90;99.90;;;;;;8438688;28;20179;-77
2022/12/06 21:29:54;;;;;;;9.97;7.13;;;1.90;99.90;;;;;;8458604;28;20233;-76
2022/12/06 21:33:56;;;;;;;8.40;6.60;;;1.90;99.90;;;;;;8432447;28;20203;-76
2022/12/06 21:37:56;;;;;;;8.73;6.80;;;1.90;99.90;;;;;;8442186;28;20229;-78
2022/12/06 21:41:57;;;;;;;9.30;6.73;;;1.90;99.90;;;;;;8454389;28;20171;-76
2022/12/06 21:46:07;;;;;;;11.77;6.70;;;1.90;99.90;;;;;;8433654;28;20182;-76
2022/12/06 21:50:08;;;;;;;10.17;6.87;;;1.90;99.90;;;;;;8422703;28;20440;-78